Time;durP1;ratioP1;P1;durP2;ratioP2;P2;SDS_P1;SDS_P2;PMS_P1;PMS_P2;Temp;Humidity;BMP_temperature;BMP_pressure;BME280_temperature;BME280_humidity;BME280_pressure;Samples;Min_cycle;Max_cycle;Signal;HPM_P1;HPM_P2
2023/10/11 00:05:42;;;;;;;4.25;3.05;;;23.80;60.00;;;;;;4977693;28;87196;-84
2023/10/11 00:08:13;;;;;;;4.22;3.28;;;23.80;60.20;;;;;;4971020;28;89922;-84
2023/10/11 00:10:45;;;;;;;4.18;2.50;;;23.80;60.20;;;;;;4969441;28;89185;-84
2023/10/11 00:13:11;;;;;;;6.00;2.75;;;23.80;60.10;;;;;;4968936;28;91370;-87
2023/10/11 00:15:37;;;;;;;3.22;2.60;;;23.70;60.10;;;;;;4969007;28;87564;-87
2023/10/11 00:18:03;;;;;;;3.53;2.65;;;23.70;60.50;;;;;;4974681;28;87175;-84
2023/10/11 00:20:46;;;;;;;3.40;2.38;;;23.70;60.30;;;;;;4973764;28;87505;-83
2023/10/11 00:23:13;;;;;;;5.05;2.85;;;23.70;60.30;;;;;;4973360;28;87823;-83
2023/10/11 00:25:39;;;;;;;4.90;2.88;;;23.70;60.20;;;;;;4974191;28;87702;-83
2023/10/11 00:28:08;;;;;;;3.33;2.53;;;23.70;60.20;;;;;;4973963;28;87181;-87
2023/10/11 00:30:40;;;;;;;3.75;2.80;;;23.70;60.30;;;;;;4971071;28;89823;-83
2023/10/11 00:33:07;;;;;;;3.58;2.65;;;23.70;60.30;;;;;;4971929;28;91149;-88
2023/10/11 00:35:35;;;;;;;3.80;2.72;;;23.70;60.30;;;;;;4972547;28;88239;-86
2023/10/11 00:38:01;;;;;;;5.30;2.88;;;23.70;60.30;;;;;;4972430;28;87663;-83
2023/10/11 00:40:32;;;;;;;3.85;2.83;;;23.70;60.30;;;;;;4973636;28;91135;-86
2023/10/11 00:42:58;;;;;;;4.60;2.70;;;23.70;60.40;;;;;;4974948;28;88590;-84
2023/10/11 00:45:30;;;;;;;4.53;2.47;;;23.70;60.30;;;;;;4966225;28;87651;-85
2023/10/11 00:47:56;;;;;;;4.03;2.97;;;23.70;60.30;;;;;;4975452;28;89844;-84
2023/10/11 00:50:23;;;;;;;4.30;3.10;;;23.70;60.30;;;;;;4989648;28;89529;-86
2023/10/11 00:52:50;;;;;;;5.05;3.13;;;23.60;60.30;;;;;;4973756;28;90593;-83
2023/10/11 00:55:22;;;;;;;3.50;2.70;;;23.60;60.20;;;;;;4990157;28;87091;-83
2023/10/11 00:57:49;;;;;;;5.25;3.28;;;23.60;60.20;;;;;;4974147;28;87871;-84
2023/10/11 01:00:23;;;;;;;5.00;2.80;;;23.60;60.40;;;;;;4972081;28;90096;-88
2023/10/11 01:02:51;;;;;;;3.65;2.53;;;23.60;60.30;;;;;;4969736;28;94592;-87
2023/10/11 01:05:20;;;;;;;4.70;2.83;;;23.60;60.30;;;;;;4970602;28;87724;-88
2023/10/11 01:07:46;;;;;;;4.00;2.72;;;23.60;60.30;;;;;;4970358;28;89568;-86
2023/10/11 01:10:13;;;;;;;3.95;2.33;;;23.60;60.40;;;;;;4972032;28;88799;-85
2023/10/11 01:12:39;;;;;;;5.03;2.95;;;23.60;60.50;;;;;;4969350;28;89563;-85
2023/10/11 01:15:12;;;;;;;3.90;2.50;;;23.60;60.60;;;;;;4988066;28;87457;-84
2023/10/11 01:17:39;;;;;;;4.00;3.00;;;23.60;60.50;;;;;;4962612;28;87184;-84
2023/10/11 01:20:15;;;;;;;3.25;2.63;;;23.50;60.50;;;;;;4971185;28;88767;-83
2023/10/11 01:22:41;;;;;;;4.32;2.70;;;23.50;60.40;;;;;;4972581;28;88448;-85
2023/10/11 01:25:08;;;;;;;4.38;2.90;;;23.50;60.50;;;;;;4972765;28;88610;-88
2023/10/11 01:27:37;;;;;;;4.18;2.60;;;23.50;60.50;;;;;;4974926;28;87535;-84
2023/10/11 01:30:09;;;;;;;3.45;2.38;;;23.50;60.50;;;;;;4973930;28;90756;-83
2023/10/11 01:32:41;;;;;;;3.53;2.60;;;23.50;60.40;;;;;;4973607;28;91333;-84
2023/10/11 01:35:20;;;;;;;5.00;2.72;;;23.50;60.50;;;;;;4974029;28;87516;-88
2023/10/11 01:37:46;;;;;;;5.45;3.38;;;23.50;60.40;;;;;;4973295;28;89293;-84
2023/10/11 01:40:20;;;;;;;5.13;2.78;;;23.50;60.50;;;;;;4972644;28;90247;-88
2023/10/11 01:42:55;;;;;;;3.45;2.40;;;23.50;60.50;;;;;;4972508;28;91667;-83
2023/10/11 01:45:23;;;;;;;4.18;2.72;;;23.50;60.60;;;;;;4975357;28;87294;-88
2023/10/11 01:47:50;;;;;;;4.10;2.85;;;23.50;60.50;;;;;;4973648;28;89288;-83
2023/10/11 01:50:17;;;;;;;4.07;2.90;;;23.50;60.50;;;;;;4972352;28;90781;-83
2023/10/11 01:52:47;;;;;;;3.25;2.50;;;23.50;60.50;;;;;;4973909;28;89163;-84
2023/10/11 01:55:14;;;;;;;3.03;2.10;;;23.40;60.50;;;;;;4975160;28;87168;-86
2023/10/11 01:57:45;;;;;;;3.33;2.40;;;23.40;60.50;;;;;;4973377;28;87704;-88
2023/10/11 02:00:16;;;;;;;4.68;3.10;;;23.40;60.50;;;;;;4974380;28;89044;-83
2023/10/11 02:02:47;;;;;;;3.88;2.65;;;23.40;60.60;;;;;;4972529;28;89408;-86
2023/10/11 02:05:17;;;;;;;3.60;2.72;;;23.40;60.70;;;;;;4973706;28;87649;-82
2023/10/11 02:07:46;;;;;;;3.28;2.33;;;23.40;60.60;;;;;;4975025;28;86901;-87
2023/10/11 02:10:12;;;;;;;3.80;2.65;;;23.40;60.60;;;;;;4973117;28;88662;-83
2023/10/11 02:12:46;;;;;;;4.25;2.95;;;23.40;60.60;;;;;;4974417;28;87825;-86
2023/10/11 02:15:28;;;;;;;3.70;2.72;;;23.40;60.50;;;;;;4973155;28;88885;-85
2023/10/11 02:17:57;;;;;;;4.07;2.63;;;23.40;60.50;;;;;;4972416;28;94152;-83
2023/10/11 02:20:23;;;;;;;;;;;23.40;60.70;;;;;;4975665;28;88168;-83
2023/10/11 02:22:55;;;;;;;3.53;2.60;;;23.40;60.40;;;;;;4973366;28;88063;-85
2023/10/11 02:25:27;;;;;;;3.60;2.67;;;23.40;60.40;;;;;;4970334;28;87453;-89
2023/10/11 02:27:54;;;;;;;3.75;2.80;;;23.40;60.40;;;;;;4969697;28;90047;-85
2023/10/11 02:30:24;;;;;;;3.30;2.60;;;23.40;60.50;;;;;;4972574;28;91271;-86
2023/10/11 02:32:51;;;;;;;3.35;2.47;;;23.40;60.50;;;;;;4976120;28;88331;-86
2023/10/11 02:35:18;;;;;;;4.15;2.97;;;23.40;60.60;;;;;;4973324;28;87613;-85
2023/10/11 02:37:45;;;;;;;3.75;2.72;;;23.40;60.70;;;;;;4972151;28;90375;-86
2023/10/11 02:40:16;;;;;;;4.10;2.42;;;23.40;60.70;;;;;;4973902;28;89464;-86
2023/10/11 02:42:44;;;;;;;3.45;2.50;;;23.30;60.40;;;;;;4988673;28;90482;-85
2023/10/11 02:45:12;;;;;;;4.93;2.92;;;23.30;60.80;;;;;;4975644;28;87667;-83
2023/10/11 02:47:39;;;;;;;4.30;2.90;;;23.30;60.60;;;;;;4971954;28;89380;-85
2023/10/11 02:50:07;;;;;;;4.07;2.80;;;23.30;60.50;;;;;;4972722;28;91169;-84
2023/10/11 02:52:36;;;;;;;4.70;3.05;;;23.30;60.40;;;;;;4972327;28;88994;-83
2023/10/11 02:55:21;;;;;;;4.43;2.63;;;23.30;60.50;;;;;;4972654;28;87735;-87
2023/10/11 02:57:48;;;;;;;3.70;2.78;;;23.30;60.50;;;;;;4973959;28;88112;-84
2023/10/11 03:00:23;;;;;;;4.28;2.67;;;23.30;60.60;;;;;;4973830;28;89267;-82
2023/10/11 03:02:55;;;;;;;3.85;2.78;;;23.30;60.40;;;;;;4973116;28;92226;-84
2023/10/11 03:08:13;;;;;;;4.20;2.80;;;23.30;60.70;;;;;;4970468;28;87677;-83
2023/10/11 03:10:53;;;;;;;4.13;2.92;;;23.30;60.70;;;;;;4968890;28;90497;-85
2023/10/11 03:13:23;;;;;;;;;;;23.30;60.70;;;;;;4971391;28;87997;-87
2023/10/11 03:16:11;;;;;;;3.63;2.50;;;23.30;60.50;;;;;;4969826;28;87542;-83
2023/10/11 03:18:40;;;;;;;4.30;2.63;;;23.30;60.60;;;;;;4968311;28;90452;-85
2023/10/11 03:21:17;;;;;;;5.32;2.95;;;23.30;60.50;;;;;;4970341;28;88127;-89
2023/10/11 03:23:47;;;;;;;4.03;2.95;;;23.30;60.50;;;;;;4971918;28;87332;-88
2023/10/11 03:26:22;;;;;;;4.32;2.75;;;23.30;60.60;;;;;;4972042;28;88101;-85
2023/10/11 03:28:58;;;;;;;3.72;2.33;;;23.20;60.60;;;;;;4970841;28;89669;-87
2023/10/11 03:31:39;;;;;;;4.05;2.78;;;23.20;60.50;;;;;;4972063;28;90181;-86
2023/10/11 03:34:14;;;;;;;3.72;3.00;;;23.20;60.60;;;;;;4971534;28;88989;-84
2023/10/11 03:36:49;;;;;;;3.65;2.63;;;23.20;60.70;;;;;;4973087;28;87223;-83
2023/10/11 03:42:07;;;;;;;3.55;2.80;;;23.20;60.70;;;;;;4972080;28;92413;-84
2023/10/11 03:44:39;;;;;;;4.28;3.08;;;23.20;60.60;;;;;;4970078;28;90074;-83
2023/10/11 03:47:23;;;;;;;5.05;3.15;;;23.20;60.40;;;;;;4972650;28;87040;-83
2023/10/11 03:49:52;;;;;;;3.15;2.50;;;23.20;60.70;;;;;;4970998;28;88963;-87
2023/10/11 03:52:24;;;;;;;4.33;3.10;;;23.20;60.60;;;;;;4972182;28;88026;-87
2023/10/11 03:54:54;;;;;;;5.10;2.80;;;23.20;60.60;;;;;;4972799;28;87327;-83
2023/10/11 03:57:20;;;;;;;5.00;2.40;;;23.20;60.70;;;;;;4971130;28;87919;-83
2023/10/11 03:59:53;;;;;;;3.75;2.53;;;23.20;60.60;;;;;;4973502;28;87405;-86
2023/10/11 04:02:21;;;;;;;3.60;2.67;;;23.20;60.70;;;;;;4971300;28;88827;-85
2023/10/11 04:04:50;;;;;;;3.22;2.40;;;23.20;60.80;;;;;;4974014;28;87488;-86
2023/10/11 04:07:22;;;;;;;3.15;2.65;;;23.20;60.80;;;;;;4975330;28;87655;-83
2023/10/11 04:09:49;;;;;;;3.33;2.70;;;23.20;61.00;;;;;;4974056;28;88196;-86
2023/10/11 04:12:15;;;;;;;3.92;2.72;;;23.20;60.80;;;;;;4989653;28;90184;-83
2023/10/11 04:14:45;;;;;;;4.15;2.78;;;23.20;60.80;;;;;;4975562;28;86692;-83
2023/10/11 04:17:14;;;;;;;4.30;3.13;;;23.20;60.70;;;;;;4975841;28;87478;-83
2023/10/11 04:19:41;;;;;;;3.20;2.25;;;23.20;60.90;;;;;;4974273;28;87980;-86
2023/10/11 04:22:16;;;;;;;3.95;2.85;;;23.20;60.70;;;;;;4974066;28;90943;-88
2023/10/11 04:24:44;;;;;;;3.72;2.97;;;23.20;60.70;;;;;;4973436;28;89853;-84
2023/10/11 04:29:51;;;;;;;2.80;2.38;;;23.20;60.90;;;;;;4975704;28;89337;-85
2023/10/11 04:35:18;;;;;;;3.90;2.33;;;23.20;60.70;;;;;;4975312;28;87432;-84
2023/10/11 04:37:50;;;;;;;3.83;2.60;;;23.10;60.80;;;;;;4975138;28;87436;-84
2023/10/11 04:40:22;;;;;;;3.50;2.50;;;23.10;60.60;;;;;;4974937;28;87192;-85
2023/10/11 04:43:04;;;;;;;3.88;2.88;;;23.10;60.70;;;;;;4973807;28;89540;-86
2023/10/11 04:45:43;;;;;;;3.55;2.65;;;23.10;60.80;;;;;;4972976;28;91492;-83
2023/10/11 04:48:18;;;;;;;3.20;2.60;;;23.10;60.80;;;;;;4974025;28;87968;-86
2023/10/11 04:50:50;;;;;;;3.35;2.70;;;23.10;60.80;;;;;;4975179;28;87647;-84
2023/10/11 04:53:17;;;;;;;2.65;2.35;;;23.10;60.80;;;;;;4973254;28;91370;-84
2023/10/11 04:55:58;;;;;;;2.80;2.20;;;23.10;60.80;;;;;;4973316;28;89490;-84
2023/10/11 05:01:22;;;;;;;3.10;2.35;;;23.10;60.80;;;;;;4962271;28;87755;-85
2023/10/11 05:03:59;;;;;;;2.33;2.08;;;23.10;60.80;;;;;;4974126;28;88157;-83
2023/10/11 05:06:31;;;;;;;3.42;2.58;;;23.10;60.80;;;;;;4973569;28;89988;-84
2023/10/11 05:09:13;;;;;;;3.63;2.95;;;23.10;60.70;;;;;;4973950;28;87835;-82
2023/10/11 05:12:25;;;;;;;3.90;2.38;;;23.10;60.70;;;;;;4971871;28;89896;-84
2023/10/11 05:17:16;;;;;;;2.90;2.40;;;23.10;60.70;;;;;;4974084;28;90053;-83
2023/10/11 05:19:56;;;;;;;3.42;2.63;;;23.10;60.60;;;;;;4975399;28;87520;-84
2023/10/11 05:32:49;;;;;;;3.15;2.30;;;23.10;60.80;;;;;;4973035;28;86780;-90
2023/10/11 05:51:43;;;;;;;3.70;2.88;;;23.00;60.70;;;;;;4975136;28;87704;-84
2023/10/11 05:54:11;;;;;;;2.65;2.05;;;23.00;60.70;;;;;;4973979;28;88602;-83
2023/10/11 05:56:45;;;;;;;3.53;2.67;;;23.00;61.50;;;;;;4972923;28;89868;-86
2023/10/11 05:59:13;;;;;;;3.47;2.55;;;23.00;60.70;;;;;;4975365;28;88362;-83
2023/10/11 06:01:43;;;;;;;3.27;2.73;;;23.00;60.80;;;;;;4973922;28;87281;-86
2023/10/11 06:04:13;;;;;;;3.17;2.33;;;23.00;60.70;;;;;;4972893;28;88561;-87
2023/10/11 06:06:42;;;;;;;3.13;2.30;;;23.00;60.70;;;;;;4974925;28;90242;-89
2023/10/11 06:09:16;;;;;;;4.53;2.58;;;23.00;60.40;;;;;;4976907;28;90263;-89
2023/10/11 06:11:48;;;;;;;3.40;2.75;;;23.00;59.80;;;;;;4966152;28;87379;-91
2023/10/11 06:14:16;;;;;;;4.65;3.28;;;23.00;59.30;;;;;;4988755;28;94171;-88
2023/10/11 06:16:49;;;;;;;5.78;2.40;;;23.00;59.10;;;;;;4974575;28;90053;-85
2023/10/11 06:19:17;;;;;;;2.85;2.42;;;23.00;60.30;;;;;;4975415;28;89886;-89
2023/10/11 06:21:59;;;;;;;3.63;2.38;;;23.00;60.10;;;;;;4977243;28;87288;-87
2023/10/11 06:24:36;;;;;;;4.40;2.70;;;23.00;60.10;;;;;;4974624;28;90472;-87
2023/10/11 06:29:57;;;;;;;10.43;3.30;;;23.00;60.00;;;;;;4975879;28;87533;-87
2023/10/11 06:32:24;;;;;;;6.80;3.33;;;23.00;60.00;;;;;;4974154;28;88794;-85
2023/10/11 06:34:54;;;;;;;7.30;3.30;;;23.00;60.20;;;;;;4974875;28;87478;-85
2023/10/11 06:37:24;;;;;;;8.05;3.58;;;23.00;60.10;;;;;;4975236;28;89916;-88
2023/10/11 06:40:14;;;;;;;10.43;3.78;;;23.00;60.20;;;;;;4972437;28;89273;-89
2023/10/11 06:42:36;;;;;;;7.93;3.53;;;23.00;60.20;;;;;;4972840;28;87096;-84
2023/10/11 06:45:05;;;;;;;6.35;3.50;;;23.00;60.20;;;;;;4974255;28;87435;-83
2023/10/11 06:47:36;;;;;;;9.07;3.27;;;23.00;59.80;;;;;;4987406;28;91220;-84
2023/10/11 06:50:11;;;;;;;12.20;4.15;;;23.00;60.00;;;;;;4972747;28;89281;-87
2023/10/11 06:52:43;;;;;;;10.38;4.32;;;23.10;60.00;;;;;;4965429;28;88186;-84
2023/10/11 06:58:03;;;;;;;18.65;5.97;;;23.10;60.30;;;;;;4972142;28;89894;-88
2023/10/11 07:00:30;;;;;;;32.90;6.85;;;23.00;60.20;;;;;;4970663;28;90774;-84
2023/10/11 07:05:47;;;;;;;67.03;17.02;;;23.10;59.30;;;;;;4971842;28;89282;-84
2023/10/11 07:08:17;;;;;;;51.75;12.50;;;23.10;58.80;;;;;;4966833;28;88949;-84
2023/10/11 07:11:10;;;;;;;46.35;11.95;;;23.00;58.30;;;;;;4968359;28;91176;-93
2023/10/11 07:13:57;;;;;;;38.63;9.85;;;23.00;58.30;;;;;;4973897;28;87180;-87
2023/10/11 07:16:27;;;;;;;43.47;11.25;;;23.10;57.80;;;;;;4976405;28;86817;-88
2023/10/11 07:18:55;;;;;;;44.67;11.63;;;23.10;57.30;;;;;;4967778;28;91750;-90
2023/10/11 07:21:54;;;;;;;56.10;12.77;;;23.10;57.20;;;;;;4974573;28;90595;-89
2023/10/11 07:24:19;;;;;;;47.05;11.43;;;23.10;57.30;;;;;;4969675;28;88425;-85
2023/10/11 07:26:48;;;;;;;38.75;10.73;;;23.10;57.60;;;;;;4975941;28;89199;-86
2023/10/11 07:29:21;;;;;;;43.28;12.15;;;23.10;57.80;;;;;;4976118;28;87938;-87
2023/10/11 07:31:49;;;;;;;42.78;10.98;;;23.10;58.00;;;;;;4974461;28;88122;-86
2023/10/11 07:34:22;;;;;;;44.45;12.38;;;23.10;58.30;;;;;;4976680;28;87716;-87
2023/10/11 07:36:48;;;;;;;35.85;11.40;;;23.20;58.40;;;;;;4992138;28;88274;-87
2023/10/11 07:42:18;;;;;;;41.25;10.85;;;23.20;58.60;;;;;;4968589;28;92628;-82
2023/10/11 07:44:50;;;;;;;35.17;10.20;;;23.20;58.10;;;;;;4967519;28;87287;-83
2023/10/11 07:47:16;;;;;;;35.75;11.43;;;23.20;58.40;;;;;;4969946;28;88977;-83
2023/10/11 07:49:42;;;;;;;38.00;10.82;;;23.20;58.60;;;;;;4953212;28;89466;-83
2023/10/11 07:52:09;;;;;;;63.35;16.08;;;23.20;57.00;;;;;;4980718;28;91077;-85
2023/10/11 07:54:39;;;;;;;63.42;17.25;;;23.20;57.80;;;;;;4966032;28;87344;-80
2023/10/11 07:57:14;;;;;;;76.55;22.85;;;23.20;58.30;;;;;;4966591;28;87764;-81
2023/10/11 08:00:00;;;;;;;73.05;22.85;;;23.20;57.60;;;;;;4971850;28;92647;-83
2023/10/11 08:02:41;;;;;;;72.88;22.13;;;23.20;58.30;;;;;;4968184;28;90628;-81
2023/10/11 08:05:12;;;;;;;84.40;28.35;;;23.20;58.40;;;;;;4969557;28;87581;-81
2023/10/11 08:07:40;;;;;;;87.53;24.50;;;23.20;57.60;;;;;;4969844;28;87385;-82
2023/10/11 08:13:23;;;;;;;58.78;20.48;;;23.20;57.50;;;;;;4971961;28;88451;-83
2023/10/11 08:15:58;;;;;;;77.68;23.75;;;23.20;58.00;;;;;;4972933;28;88030;-87
2023/10/11 08:18:26;;;;;;;60.85;17.05;;;23.20;58.10;;;;;;4974801;28;87473;-80
2023/10/11 08:20:52;;;;;;;61.97;19.83;;;23.20;57.30;;;;;;4975961;28;89372;-81
2023/10/11 08:23:30;;;;;;;63.92;21.52;;;23.20;57.70;;;;;;4975897;28;88068;-81
2023/10/11 08:25:57;;;;;;;58.70;18.33;;;23.30;58.30;;;;;;4973243;28;87834;-86
2023/10/11 08:28:28;;;;;;;48.92;17.90;;;23.20;58.30;;;;;;4972191;28;87778;-85
2023/10/11 08:30:57;;;;;;;63.47;20.73;;;23.20;58.10;;;;;;4973689;28;88621;-86
2023/10/11 08:33:32;;;;;;;62.22;19.70;;;23.30;58.20;;;;;;4974782;28;88192;-84
2023/10/11 08:35:58;;;;;;;51.00;17.80;;;23.30;58.40;;;;;;4973910;28;87693;-81
2023/10/11 08:38:27;;;;;;;46.85;13.98;;;23.30;58.60;;;;;;4974420;28;87839;-84
2023/10/11 08:40:58;;;;;;;39.67;14.45;;;23.30;57.70;;;;;;4962518;28;90856;-81
2023/10/11 08:43:28;;;;;;;45.85;16.90;;;23.20;58.00;;;;;;4971684;28;89075;-81
2023/10/11 08:46:09;;;;;;;48.53;15.75;;;23.30;58.40;;;;;;4967150;28;88373;-84
2023/10/11 08:48:38;;;;;;;44.70;15.65;;;23.30;58.80;;;;;;4968281;28;89105;-83
2023/10/11 08:51:12;;;;;;;31.50;13.82;;;23.30;58.90;;;;;;4971289;28;91162;-81
2023/10/11 08:53:46;;;;;;;48.50;13.77;;;23.30;58.60;;;;;;4968190;28;89285;-82
2023/10/11 08:56:14;;;;;;;47.45;15.45;;;23.30;59.20;;;;;;4983334;28;88039;-83
2023/10/11 08:58:41;;;;;;;44.80;14.65;;;23.30;59.40;;;;;;4969255;28;88784;-83
2023/10/11 09:01:07;;;;;;;36.55;13.60;;;23.30;59.60;;;;;;4969911;28;87916;-85
2023/10/11 09:03:40;;;;;;;34.78;13.57;;;23.30;59.50;;;;;;4983105;28;88949;-82
2023/10/11 09:06:25;;;;;;;39.67;13.43;;;23.30;59.80;;;;;;4970568;28;88435;-83
2023/10/11 09:08:51;;;;;;;40.90;13.43;;;23.30;60.10;;;;;;4971317;28;93531;-84
2023/10/11 09:11:31;;;;;;;34.42;11.98;;;23.30;60.10;;;;;;4973985;28;88815;-82
2023/10/11 09:14:22;;;;;;;34.55;12.43;;;23.30;60.20;;;;;;4973380;28;87247;-84
2023/10/11 09:16:57;;;;;;;32.10;12.30;;;23.30;60.30;;;;;;4972817;28;87725;-83
2023/10/11 09:19:26;;;;;;;36.65;12.77;;;23.30;60.90;;;;;;4969020;28;88522;-84
2023/10/11 09:22:03;;;;;;;33.40;11.75;;;23.30;61.10;;;;;;4967103;28;89003;-81
2023/10/11 09:36:12;;;;;;;30.20;12.05;;;23.40;62.20;;;;;;5005313;28;87039;-84
2023/10/11 09:38:44;;;;;;;31.08;12.57;;;23.30;61.70;;;;;;4980400;27;86778;-84
2023/10/11 09:41:11;;;;;;;23.50;10.55;;;23.30;61.90;;;;;;4948422;28;86549;-86
2023/10/11 09:43:44;;;;;;;29.05;11.38;;;23.30;59.80;;;;;;4951491;28;87072;-87
2023/10/11 09:46:13;;;;;;;26.35;11.57;;;23.30;60.50;;;;;;4953016;28;88330;-85
2023/10/11 09:48:40;;;;;;;24.67;10.77;;;23.40;61.20;;;;;;4960879;28;86225;-84
2023/10/11 09:51:14;;;;;;;34.08;11.23;;;23.40;61.00;;;;;;4959029;28;86212;-86
2023/10/11 09:53:50;;;;;;;29.98;10.93;;;23.40;61.00;;;;;;4965160;28;86886;-85
2023/10/11 09:56:25;;;;;;;36.15;11.35;;;23.40;60.90;;;;;;4974111;28;86646;-85
2023/10/11 09:59:22;;;;;;;25.48;9.15;;;23.40;60.90;;;;;;4975131;28;86649;-82
2023/10/11 10:02:13;;;;;;;27.60;10.05;;;23.40;60.80;;;;;;4978401;28;86150;-86
2023/10/11 10:04:49;;;;;;;17.70;8.57;;;23.50;61.00;;;;;;4976033;28;93145;-83
2023/10/11 10:07:25;;;;;;;24.38;9.52;;;23.50;61.00;;;;;;4977794;28;86600;-84
2023/10/11 10:10:00;;;;;;;24.00;9.48;;;23.50;60.70;;;;;;4978778;28;86076;-85
2023/10/11 10:12:43;;;;;;;19.85;8.45;;;23.50;60.50;;;;;;4980749;28;86422;-84
2023/10/11 10:15:23;;;;;;;25.00;8.35;;;23.60;60.40;;;;;;4979804;28;86817;-86
2023/10/11 10:18:00;;;;;;;25.88;9.68;;;23.60;60.50;;;;;;4979000;28;93853;-86
2023/10/11 10:20:41;;;;;;;23.92;8.60;;;23.60;60.60;;;;;;4980483;28;86711;-85
2023/10/11 10:23:15;;;;;;;20.73;8.38;;;23.60;60.50;;;;;;4982509;28;86691;-86
2023/10/11 10:25:50;;;;;;;18.50;7.43;;;23.60;60.70;;;;;;4981283;28;88110;-85
2023/10/11 10:28:39;;;;;;;20.05;7.63;;;23.60;60.60;;;;;;4980289;28;86221;-86
2023/10/11 10:31:12;;;;;;;18.63;6.68;;;23.60;60.50;;;;;;4982517;28;86014;-84
2023/10/11 10:33:42;;;;;;;18.63;6.88;;;23.70;60.40;;;;;;4970387;28;86276;-84
2023/10/11 10:36:20;;;;;;;21.48;7.72;;;23.70;60.60;;;;;;4976768;28;86699;-84
2023/10/11 10:38:58;;;;;;;16.08;7.00;;;23.70;61.70;;;;;;4963518;28;93291;-84
2023/10/11 10:41:25;;;;;;;15.52;6.47;;;23.70;61.00;;;;;;4966018;28;86225;-85
2023/10/11 10:44:08;;;;;;;15.73;6.78;;;23.70;60.80;;;;;;4962089;28;86437;-84
2023/10/11 10:46:35;;;;;;;16.58;6.68;;;23.70;60.30;;;;;;4964573;28;86282;-85
2023/10/11 10:49:02;;;;;;;16.38;6.55;;;23.70;60.70;;;;;;4964837;28;86445;-85
2023/10/11 10:51:37;;;;;;;20.85;7.47;;;23.70;60.60;;;;;;4964763;28;86755;-86
2023/10/11 10:54:12;;;;;;;15.77;7.15;;;23.70;60.70;;;;;;4965866;28;86003;-84
2023/10/11 10:56:45;;;;;;;13.98;7.05;;;23.70;60.40;;;;;;4960835;28;87954;-86
2023/10/11 10:59:15;;;;;;;17.33;7.32;;;23.70;60.60;;;;;;4962716;28;87071;-86
2023/10/11 11:01:50;;;;;;;13.02;6.68;;;23.70;60.40;;;;;;4964671;28;86176;-85
2023/10/11 11:04:20;;;;;;;20.63;7.53;;;23.70;60.20;;;;;;4964497;28;87338;-83
2023/10/11 11:06:48;;;;;;;15.45;6.82;;;23.80;60.30;;;;;;4964044;28;86273;-83
2023/10/11 11:09:19;;;;;;;13.00;6.18;;;23.70;60.00;;;;;;4965268;28;86291;-85
2023/10/11 11:11:49;;;;;;;16.55;6.78;;;23.70;60.00;;;;;;4965990;28;86181;-86
2023/10/11 11:14:19;;;;;;;14.63;5.88;;;23.70;60.10;;;;;;4965781;28;86459;-84
2023/10/11 11:16:57;;;;;;;11.60;4.55;;;23.70;58.30;;;;;;4965400;28;86831;-85
2023/10/11 11:19:33;;;;;;;10.00;4.68;;;23.70;58.40;;;;;;4958379;28;86220;-83
2023/10/11 11:22:26;;;;;;;12.27;5.50;;;23.70;58.10;;;;;;4968434;28;86924;-85
2023/10/11 11:24:52;;;;;;;10.63;5.65;;;23.70;58.70;;;;;;4966815;28;86453;-85
2023/10/11 11:27:25;;;;;;;14.65;5.38;;;23.80;58.70;;;;;;4964832;28;89457;-86
2023/10/11 11:29:54;;;;;;;11.82;5.38;;;23.80;58.50;;;;;;4967031;28;90956;-88
2023/10/11 11:32:38;;;;;;;;;;;23.80;59.20;;;;;;4965893;28;86746;-84
2023/10/11 11:35:10;;;;;;;13.93;5.85;;;23.80;59.40;;;;;;4965747;28;86247;-86
2023/10/11 11:37:39;;;;;;;11.40;5.65;;;23.80;59.20;;;;;;4963623;28;87428;-85
2023/10/11 11:40:24;;;;;;;;;;;23.80;59.20;;;;;;4965087;28;86469;-84
2023/10/11 11:42:50;;;;;;;14.80;5.57;;;23.80;59.20;;;;;;4966966;28;85693;-84
2023/10/11 11:45:16;;;;;;;9.70;5.07;;;23.90;59.60;;;;;;4965448;28;86207;-83
2023/10/11 11:48:00;;;;;;;12.15;5.75;;;23.80;59.60;;;;;;4963943;28;86687;-85
2023/10/11 11:50:31;;;;;;;13.75;6.10;;;23.90;59.60;;;;;;4964401;28;86853;-84
2023/10/11 11:52:57;;;;;;;12.38;5.15;;;23.80;59.40;;;;;;4966226;28;86880;-86
2023/10/11 11:55:23;;;;;;;16.05;5.70;;;23.90;59.40;;;;;;4964424;28;86827;-85
2023/10/11 11:57:53;;;;;;;11.98;5.55;;;23.80;59.50;;;;;;4965689;28;86526;-86
2023/10/11 12:03:04;;;;;;;11.35;5.00;;;23.80;57.60;;;;;;4965497;28;86423;-85
2023/10/11 12:05:31;;;;;;;7.30;4.70;;;23.90;57.10;;;;;;4958965;28;87536;-86
2023/10/11 12:07:58;;;;;;;12.70;5.70;;;23.90;56.80;;;;;;4963745;28;89743;-86
2023/10/11 12:10:32;;;;;;;11.13;4.93;;;23.90;57.80;;;;;;4962320;28;88941;-83
2023/10/11 12:13:05;;;;;;;14.07;4.85;;;23.90;57.40;;;;;;4963701;28;86704;-84
2023/10/11 12:15:32;;;;;;;11.95;5.35;;;23.90;57.80;;;;;;4962997;28;86815;-84
2023/10/11 12:17:57;;;;;;;43.85;13.80;;;23.90;58.00;;;;;;4964341;28;86855;-84
2023/10/11 12:20:33;;;;;;;27.45;9.20;;;23.90;58.40;;;;;;4962447;28;89195;-84
2023/10/11 12:23:07;;;;;;;32.72;9.38;;;23.90;58.20;;;;;;4965437;28;86276;-84
2023/10/11 12:25:34;;;;;;;29.75;9.02;;;23.90;58.30;;;;;;4965979;28;86649;-82
2023/10/11 12:28:03;;;;;;;33.33;10.05;;;23.90;58.50;;;;;;4965333;28;86837;-84
2023/10/11 12:30:33;;;;;;;;;;;23.90;58.60;;;;;;4964429;28;87033;-84
2023/10/11 12:33:06;;;;;;;37.33;13.10;;;23.90;58.90;;;;;;4980241;28;86682;-84
2023/10/11 12:35:41;;;;;;;46.85;14.02;;;23.90;59.50;;;;;;4962299;28;86333;-84
2023/10/11 12:38:12;;;;;;;41.40;14.82;;;23.90;59.10;;;;;;4963403;28;86276;-84
2023/10/11 12:40:44;;;;;;;41.70;13.77;;;23.90;58.80;;;;;;4964332;28;86269;-86
2023/10/11 12:43:10;;;;;;;39.35;12.57;;;23.90;58.80;;;;;;4964251;28;86772;-84
2023/10/11 12:45:36;;;;;;;41.35;13.40;;;23.90;59.00;;;;;;4960579;28;86151;-84
2023/10/11 12:48:11;;;;;;;35.70;12.80;;;23.90;59.10;;;;;;4963111;28;86672;-84
2023/10/11 12:50:37;;;;;;;40.80;12.55;;;23.90;59.00;;;;;;4962086;28;86183;-83
2023/10/11 12:53:11;;;;;;;32.88;11.80;;;23.90;59.10;;;;;;4961482;28;86286;-86
2023/10/11 12:55:45;;;;;;;34.13;12.13;;;23.90;59.10;;;;;;4960030;28;86403;-84
2023/10/11 12:58:14;;;;;;;35.97;11.68;;;23.90;59.80;;;;;;4961120;28;89085;-87
2023/10/11 13:03:40;;;;;;;29.63;11.07;;;23.90;59.50;;;;;;4953628;28;86733;-84
2023/10/11 13:06:09;;;;;;;38.97;10.82;;;23.90;59.40;;;;;;4964807;28;86153;-86
2023/10/11 13:08:42;;;;;;;;;;;23.90;59.60;;;;;;4962678;28;88264;-89
2023/10/11 13:11:12;;;;;;;22.50;9.18;;;23.90;59.60;;;;;;4963962;28;86672;-84
2023/10/11 13:13:40;;;;;;;26.50;10.57;;;24.00;59.30;;;;;;4961832;28;86402;-84
2023/10/11 13:16:06;;;;;;;24.17;9.90;;;24.00;59.40;;;;;;4963338;28;86695;-84
2023/10/11 13:18:33;;;;;;;24.92;10.25;;;24.00;59.40;;;;;;4962939;28;86391;-84
2023/10/11 13:21:01;;;;;;;30.08;10.55;;;24.00;59.50;;;;;;4962546;28;86456;-84
2023/10/11 13:23:30;;;;;;;25.77;8.95;;;24.00;59.80;;;;;;4962313;28;86869;-84
2023/10/11 13:26:01;;;;;;;25.53;9.67;;;24.00;59.80;;;;;;4962087;28;86572;-85
2023/10/11 13:28:29;;;;;;;26.30;9.85;;;24.00;59.90;;;;;;4963423;28;87579;-85
2023/10/11 13:30:55;;;;;;;21.92;8.45;;;24.00;59.70;;;;;;4963154;28;86759;-85
2023/10/11 13:33:21;;;;;;;23.92;9.18;;;24.00;59.60;;;;;;4963915;28;87038;-85
2023/10/11 13:35:54;;;;;;;20.90;9.07;;;24.00;59.60;;;;;;4963674;28;86626;-84
2023/10/11 13:38:20;;;;;;;25.25;8.75;;;24.00;59.70;;;;;;4962737;28;86935;-84
2023/10/11 13:40:46;;;;;;;27.50;9.27;;;24.00;59.50;;;;;;4960415;28;89112;-85
2023/10/11 13:43:13;;;;;;;23.48;9.15;;;24.00;59.60;;;;;;4962721;28;86276;-84
2023/10/11 13:45:41;;;;;;;20.77;9.07;;;24.00;59.60;;;;;;4962585;28;86366;-84
2023/10/11 13:48:14;;;;;;;24.67;8.77;;;24.00;59.60;;;;;;4964709;28;86477;-86
2023/10/11 13:50:49;;;;;;;19.63;7.75;;;24.00;60.00;;;;;;4960214;28;87371;-85
2023/10/11 13:53:15;;;;;;;22.67;8.55;;;24.00;60.10;;;;;;4961175;28;86657;-83
2023/10/11 13:55:42;;;;;;;24.33;8.10;;;24.00;60.10;;;;;;4960572;28;86524;-84
2023/10/11 13:58:11;;;;;;;17.50;7.28;;;24.10;59.60;;;;;;4961000;28;87091;-83
2023/10/11 14:03:32;;;;;;;22.13;7.68;;;24.00;59.90;;;;;;4963449;28;86185;-84
2023/10/11 14:08:44;;;;;;;16.77;7.18;;;24.00;60.00;;;;;;4960457;28;86427;-81
2023/10/11 14:11:22;;;;;;;17.60;6.87;;;24.00;60.20;;;;;;4962058;28;86205;-83
2023/10/11 14:13:51;;;;;;;15.43;6.82;;;24.00;60.10;;;;;;4980381;28;86210;-82
2023/10/11 14:16:21;;;;;;;21.73;8.30;;;24.10;60.40;;;;;;4965787;28;86300;-84
2023/10/11 14:18:53;;;;;;;13.52;6.47;;;24.10;60.70;;;;;;4967629;28;90024;-85
2023/10/11 14:21:21;;;;;;;17.83;6.78;;;24.10;60.50;;;;;;4964806;28;87053;-83
2023/10/11 14:23:51;;;;;;;18.52;7.75;;;24.10;59.70;;;;;;4964354;28;86360;-82
2023/10/11 14:26:17;;;;;;;13.63;6.63;;;24.10;60.20;;;;;;4962231;28;86043;-82
2023/10/11 14:28:46;;;;;;;18.08;7.55;;;24.10;60.20;;;;;;4963606;28;86426;-83